Time;durP1;ratioP1;P1;durP2;ratioP2;P2;SDS_P1;SDS_P2;PMS_P1;PMS_P2;Temp;Humidity;BMP_temperature;BMP_pressure;BME280_temperature;BME280_humidity;BME280_pressure;Samples;Min_cycle;Max_cycle;Signal;HPM_P1;HPM_P2
2023/12/09 00:00:09;;;;;;;13.87;8.60;;;5.00;54.20;;;;;;4977747;28;46484;-68
2023/12/09 00:02:35;;;;;;;15.77;9.20;;;5.00;55.00;;;;;;4978408;28;46567;-71
2023/12/09 00:05:01;;;;;;;13.27;8.60;;;5.10;54.40;;;;;;4979981;28;46408;-69
2023/12/09 00:07:26;;;;;;;13.03;8.60;;;5.10;54.00;;;;;;4978111;28;46440;-69
2023/12/09 00:09:52;;;;;;;13.00;8.67;;;5.20;53.80;;;;;;4977504;28;47285;-68
2023/12/09 00:12:17;;;;;;;14.67;8.77;;;5.20;53.70;;;;;;4977144;28;46480;-68
2023/12/09 00:14:43;;;;;;;15.70;8.97;;;5.20;53.60;;;;;;4978724;28;46525;-69
2023/12/09 00:17:09;;;;;;;13.03;8.60;;;5.20;53.40;;;;;;4979071;28;46492;-67
2023/12/09 00:19:34;;;;;;;14.50;9.17;;;5.10;53.60;;;;;;4971291;28;47765;-69
2023/12/09 00:22:00;;;;;;;14.57;9.07;;;5.10;53.80;;;;;;4978210;28;45926;-68
2023/12/09 00:24:26;;;;;;;12.90;8.13;;;5.00;54.00;;;;;;4979463;28;46575;-70
2023/12/09 00:26:52;;;;;;;15.30;8.57;;;5.00;54.20;;;;;;4978481;28;46443;-69
2023/12/09 00:29:17;;;;;;;14.00;8.20;;;5.00;54.30;;;;;;4977460;28;46475;-70
2023/12/09 00:31:43;;;;;;;13.23;8.77;;;5.00;54.20;;;;;;4976061;28;46190;-69
2023/12/09 00:34:09;;;;;;;15.93;9.60;;;4.90;54.10;;;;;;4975183;28;46495;-69
2023/12/09 00:36:35;;;;;;;17.03;9.77;;;4.90;54.50;;;;;;4976544;28;46393;-68
2023/12/09 00:39:00;;;;;;;16.03;9.20;;;4.90;54.90;;;;;;4975463;28;46602;-69
2023/12/09 00:41:26;;;;;;;15.30;10.30;;;4.90;54.70;;;;;;4976639;28;46489;-69
2023/12/09 00:43:52;;;;;;;16.97;9.70;;;4.90;54.90;;;;;;4979362;28;46471;-68
2023/12/09 00:46:17;;;;;;;15.37;9.10;;;4.80;54.90;;;;;;4977058;28;46513;-68
2023/12/09 00:48:43;;;;;;;17.40;9.53;;;4.80;55.10;;;;;;4977656;28;46151;-68
2023/12/09 00:51:09;;;;;;;14.80;9.20;;;4.80;55.20;;;;;;4975622;28;46549;-70
2023/12/09 00:53:35;;;;;;;13.83;8.97;;;4.90;55.20;;;;;;4977977;28;46426;-69
2023/12/09 00:56:00;;;;;;;18.47;9.50;;;4.90;54.80;;;;;;4975310;28;46586;-69
2023/12/09 00:58:26;;;;;;;15.83;9.20;;;5.00;54.90;;;;;;4976153;28;46547;-68
2023/12/09 01:00:52;;;;;;;16.87;9.50;;;5.00;54.80;;;;;;4976493;28;46500;-68
2023/12/09 01:03:18;;;;;;;17.83;9.97;;;5.00;54.60;;;;;;4975960;28;45890;-69
2023/12/09 01:05:43;;;;;;;15.17;9.60;;;5.10;54.70;;;;;;4976075;28;46422;-68
2023/12/09 01:08:09;;;;;;;15.37;9.90;;;5.10;54.60;;;;;;4975540;28;47066;-68
2023/12/09 01:10:35;;;;;;;15.30;9.13;;;5.10;54.60;;;;;;4977042;28;46704;-69
2023/12/09 01:13:00;;;;;;;14.60;9.30;;;5.10;54.50;;;;;;4976109;28;46518;-68
2023/12/09 01:15:26;;;;;;;15.43;9.30;;;5.10;54.40;;;;;;4977529;28;46449;-65
2023/12/09 01:17:52;;;;;;;14.63;9.60;;;5.20;54.30;;;;;;4977887;28;46543;-68
2023/12/09 01:20:18;;;;;;;15.77;9.10;;;5.20;54.20;;;;;;4974080;28;46537;-68
2023/12/09 01:22:44;;;;;;;14.17;9.33;;;5.20;54.00;;;;;;4977112;28;46424;-69
2023/12/09 01:25:09;;;;;;;14.40;9.20;;;5.20;54.00;;;;;;4996423;28;46391;-68
2023/12/09 01:27:35;;;;;;;13.70;8.93;;;5.20;54.20;;;;;;4977550;28;46010;-67
2023/12/09 01:30:01;;;;;;;15.53;9.60;;;5.20;54.40;;;;;;4975242;28;46586;-68
2023/12/09 01:32:27;;;;;;;13.07;8.50;;;5.20;54.30;;;;;;4973270;28;46501;-69
2023/12/09 01:34:52;;;;;;;13.77;9.03;;;5.20;54.40;;;;;;4974538;28;45967;-70
2023/12/09 01:37:18;;;;;;;15.40;9.27;;;5.20;54.40;;;;;;4975274;28;46188;-69
2023/12/09 01:39:44;;;;;;;15.13;9.00;;;5.20;54.40;;;;;;4975266;28;46356;-68
2023/12/09 01:42:09;;;;;;;14.00;8.60;;;5.10;54.40;;;;;;4976620;28;46236;-67
2023/12/09 01:44:36;;;;;;;12.77;8.27;;;5.10;54.70;;;;;;4976996;28;46256;-68
2023/12/09 01:47:02;;;;;;;12.90;7.80;;;5.00;54.90;;;;;;4972388;28;46424;-69
2023/12/09 01:49:28;;;;;;;11.93;8.05;;;5.00;55.10;;;;;;4975393;28;46468;-68
2023/12/09 01:51:56;;;;;;;13.23;8.90;;;5.00;55.30;;;;;;4975705;28;46240;-69
2023/12/09 01:54:22;;;;;;;12.30;8.23;;;5.00;55.30;;;;;;4976175;28;46750;-69
2023/12/09 01:56:47;;;;;;;12.90;8.43;;;5.00;55.20;;;;;;4976089;28;46386;-69
2023/12/09 01:59:14;;;;;;;14.13;8.03;;;5.00;55.00;;;;;;4974922;28;46401;-68
2023/12/09 02:01:40;;;;;;;12.40;7.93;;;5.00;55.00;;;;;;4976836;28;46366;-66
2023/12/09 02:04:06;;;;;;;13.70;8.70;;;5.10;54.80;;;;;;4974769;28;46494;-69
2023/12/09 02:06:32;;;;;;;11.07;7.33;;;5.10;54.70;;;;;;4975537;28;47437;-69
2023/12/09 02:08:58;;;;;;;13.40;8.33;;;5.10;54.50;;;;;;4976765;28;46427;-69
2023/12/09 02:11:37;;;;;;;12.37;7.93;;;5.10;54.60;;;;;;4977829;28;46433;-68
2023/12/09 02:14:10;;;;;;;10.00;7.00;;;5.10;54.90;;;;;;4979432;28;46356;-68
2023/12/09 02:16:56;;;;;;;12.90;7.07;;;5.10;54.80;;;;;;4980359;28;47160;-69
2023/12/09 02:19:23;;;;;;;13.53;7.63;;;5.20;54.80;;;;;;4979292;28;46503;-68
2023/12/09 02:21:59;;;;;;;13.23;7.70;;;5.20;54.60;;;;;;4979658;28;46460;-68
2023/12/09 02:24:26;;;;;;;13.20;8.27;;;5.10;54.60;;;;;;4979368;28;46500;-68
2023/12/09 02:26:52;;;;;;;13.87;7.27;;;5.10;54.70;;;;;;4978861;28;47087;-68
2023/12/09 02:29:20;;;;;;;16.63;8.43;;;5.10;55.00;;;;;;4979978;28;46444;-68
2023/12/09 02:31:47;;;;;;;14.20;8.40;;;5.00;55.10;;;;;;4978220;28;46538;-68
2023/12/09 02:34:14;;;;;;;11.77;7.70;;;5.00;55.20;;;;;;4979356;28;46665;-68
2023/12/09 02:36:44;;;;;;;14.27;8.53;;;5.00;55.40;;;;;;4979802;28;46270;-68
2023/12/09 02:39:13;;;;;;;21.40;7.57;;;5.00;55.50;;;;;;4978502;28;46516;-69
2023/12/09 02:41:41;;;;;;;14.43;8.13;;;5.00;55.50;;;;;;4978178;28;46345;-68
2023/12/09 02:44:07;;;;;;;14.17;7.70;;;5.00;55.50;;;;;;4979564;28;46615;-67
2023/12/09 02:46:33;;;;;;;17.40;8.53;;;5.00;55.60;;;;;;4979679;28;47464;-68
2023/12/09 02:49:02;;;;;;;12.93;7.50;;;5.00;55.50;;;;;;4980298;28;46432;-68
2023/12/09 02:51:28;;;;;;;13.67;7.43;;;5.00;55.50;;;;;;4980138;28;46594;-68
2023/12/09 02:53:54;;;;;;;14.10;8.03;;;5.00;55.60;;;;;;4979007;28;46419;-68
2023/12/09 02:56:20;;;;;;;18.57;8.63;;;5.00;55.60;;;;;;4977427;28;47217;-67
2023/12/09 02:58:46;;;;;;;18.27;8.77;;;5.00;55.70;;;;;;4979780;28;46555;-68
2023/12/09 03:01:12;;;;;;;14.73;8.00;;;5.10;55.70;;;;;;4977857;28;46198;-69
2023/12/09 03:03:37;;;;;;;23.90;9.17;;;5.10;55.70;;;;;;4978326;28;46685;-68
2023/12/09 03:06:03;;;;;;;15.73;8.60;;;5.00;55.70;;;;;;4978230;28;46999;-68
2023/12/09 03:08:29;;;;;;;16.57;8.37;;;5.10;55.80;;;;;;4977947;28;46682;-67
2023/12/09 03:10:54;;;;;;;17.70;8.97;;;5.10;55.70;;;;;;4979158;28;45784;-68
2023/12/09 03:13:20;;;;;;;13.23;8.60;;;5.10;55.80;;;;;;4978712;28;46592;-67
2023/12/09 03:15:45;;;;;;;13.60;8.50;;;5.10;55.90;;;;;;4979312;28;47124;-68
2023/12/09 03:18:11;;;;;;;18.97;9.20;;;5.10;55.80;;;;;;4978241;28;46421;-68
2023/12/09 03:20:37;;;;;;;16.47;8.40;;;5.20;55.90;;;;;;4979091;28;46607;-68
2023/12/09 03:23:02;;;;;;;14.60;7.83;;;5.20;55.70;;;;;;4979650;28;46871;-68
2023/12/09 03:25:28;;;;;;;14.20;8.00;;;5.20;55.80;;;;;;4976639;28;46381;-69
2023/12/09 03:27:54;;;;;;;14.77;7.80;;;5.20;55.80;;;;;;4979109;28;46401;-69
2023/12/09 03:30:20;;;;;;;15.83;8.37;;;5.20;56.10;;;;;;4979293;28;46354;-68
2023/12/09 03:32:46;;;;;;;15.67;8.53;;;5.10;56.10;;;;;;4977956;28;46381;-67
2023/12/09 03:35:12;;;;;;;15.13;8.93;;;5.20;56.10;;;;;;4978852;28;46449;-69
2023/12/09 03:37:38;;;;;;;15.90;8.93;;;5.20;56.00;;;;;;4979325;28;46386;-69
2023/12/09 03:40:04;;;;;;;13.07;7.30;;;5.20;56.10;;;;;;4979206;28;46560;-69
2023/12/09 03:42:29;;;;;;;19.97;8.70;;;5.10;56.10;;;;;;4979081;28;46248;-69
2023/12/09 03:44:55;;;;;;;15.30;8.57;;;5.10;56.40;;;;;;4979589;28;46384;-69
2023/12/09 03:47:20;;;;;;;19.47;9.23;;;5.10;56.80;;;;;;4978271;28;46334;-69
2023/12/09 03:49:46;;;;;;;15.07;8.60;;;5.10;56.80;;;;;;4978992;28;46664;-69
2023/12/09 03:52:12;;;;;;;13.60;8.87;;;5.10;56.90;;;;;;4979213;28;45939;-69
2023/12/09 03:54:39;;;;;;;17.97;9.00;;;5.20;56.80;;;;;;4978298;28;46330;-69
2023/12/09 03:57:04;;;;;;;17.43;8.80;;;5.20;56.60;;;;;;4980372;28;46477;-70
2023/12/09 03:59:30;;;;;;;14.77;9.00;;;5.20;56.70;;;;;;4977605;28;46534;-69
2023/12/09 04:01:55;;;;;;;18.07;8.30;;;5.20;56.50;;;;;;4980294;28;46052;-70
2023/12/09 04:04:21;;;;;;;21.47;10.00;;;5.20;56.40;;;;;;4978944;28;46451;-67
2023/12/09 04:06:46;;;;;;;18.37;8.10;;;5.20;56.40;;;;;;4977719;28;46344;-69
2023/12/09 04:09:12;;;;;;;14.90;9.37;;;5.20;56.50;;;;;;4978669;28;46494;-69
2023/12/09 04:11:38;;;;;;;18.00;9.30;;;5.20;56.40;;;;;;4979431;28;46491;-69
2023/12/09 04:14:04;;;;;;;17.03;8.43;;;5.30;56.20;;;;;;4977973;28;47179;-69
2023/12/09 04:16:29;;;;;;;15.00;8.27;;;5.30;56.10;;;;;;4978435;28;46557;-70
2023/12/09 04:18:55;;;;;;;15.17;8.40;;;5.30;56.30;;;;;;4978395;28;46532;-69
2023/12/09 04:21:21;;;;;;;16.90;9.67;;;5.30;56.00;;;;;;4977238;28;46579;-69
2023/12/09 04:23:47;;;;;;;21.90;9.10;;;5.30;55.90;;;;;;4976485;28;46456;-70
2023/12/09 04:26:13;;;;;;;17.70;9.00;;;5.30;55.90;;;;;;4977377;28;46683;-69
2023/12/09 04:28:39;;;;;;;19.90;9.80;;;5.30;55.90;;;;;;4977715;28;46747;-69
2023/12/09 04:31:04;;;;;;;17.43;8.73;;;5.30;57.20;;;;;;4977417;28;46434;-69
2023/12/09 04:33:30;;;;;;;17.63;8.77;;;5.20;56.20;;;;;;4977558;28;47038;-69
2023/12/09 04:35:56;;;;;;;15.83;8.00;;;5.20;56.70;;;;;;4977675;28;46627;-69
2023/12/09 04:38:21;;;;;;;17.40;8.67;;;5.10;57.00;;;;;;4978250;28;46535;-69
2023/12/09 04:40:47;;;;;;;22.23;10.33;;;5.10;57.20;;;;;;4968001;23;46972;-68
2023/12/09 04:43:13;;;;;;;25.90;10.20;;;5.10;57.70;;;;;;4959237;28;46382;-66
2023/12/09 04:45:38;;;;;;;23.23;9.23;;;5.00;57.90;;;;;;4960363;28;45916;-69
2023/12/09 04:48:04;;;;;;;21.73;9.87;;;5.00;58.20;;;;;;4963073;28;46677;-68
2023/12/09 04:50:30;;;;;;;24.80;10.50;;;5.00;58.40;;;;;;4962325;28;46439;-68
2023/12/09 04:52:56;;;;;;;20.37;10.10;;;5.10;58.30;;;;;;4963847;28;47203;-69
2023/12/09 04:55:22;;;;;;;23.57;10.07;;;5.10;58.50;;;;;;4961431;28;46299;-68
2023/12/09 04:57:47;;;;;;;22.27;10.07;;;5.10;58.50;;;;;;4959293;28;46414;-68
2023/12/09 05:00:13;;;;;;;20.87;8.90;;;5.10;58.50;;;;;;4961507;28;46785;-68
2023/12/09 05:02:39;;;;;;;20.17;9.20;;;5.00;58.90;;;;;;4962712;28;46947;-68
2023/12/09 05:05:04;;;;;;;22.90;9.33;;;5.00;59.30;;;;;;4960070;28;46488;-68
2023/12/09 05:07:31;;;;;;;23.60;8.97;;;5.10;59.40;;;;;;4962435;28;46299;-69
2023/12/09 05:09:56;;;;;;;23.77;9.00;;;5.10;59.40;;;;;;4958501;28;46802;-68
2023/12/09 05:12:22;;;;;;;25.43;9.20;;;5.10;59.40;;;;;;4958746;28;46403;-69
2023/12/09 05:14:48;;;;;;;20.90;9.43;;;5.10;59.60;;;;;;4960134;28;45873;-67
2023/12/09 05:17:14;;;;;;;26.80;9.73;;;5.10;59.60;;;;;;4961652;28;46456;-69
2023/12/09 05:19:40;;;;;;;15.50;8.00;;;5.10;59.60;;;;;;4961726;28;46563;-68
2023/12/09 05:22:06;;;;;;;18.80;8.37;;;5.10;59.50;;;;;;4959859;28;47138;-67
2023/12/09 05:24:31;;;;;;;21.00;8.90;;;5.10;59.80;;;;;;4959937;28;46464;-69
2023/12/09 05:26:57;;;;;;;17.30;9.07;;;5.10;60.00;;;;;;4957224;28;47003;-68
2023/12/09 05:29:23;;;;;;;18.73;8.30;;;5.10;59.90;;;;;;4961007;28;45885;-68
2023/12/09 05:31:49;;;;;;;19.50;8.53;;;5.20;59.70;;;;;;4962118;28;46419;-68
2023/12/09 05:34:15;;;;;;;21.70;8.70;;;5.20;59.70;;;;;;4960181;28;46437;-67
2023/12/09 05:36:40;;;;;;;20.77;8.37;;;5.20;59.60;;;;;;4958947;28;46145;-69
2023/12/09 05:39:06;;;;;;;19.90;8.47;;;5.20;59.50;;;;;;4958965;28;46547;-68
2023/12/09 05:41:31;;;;;;;22.03;8.83;;;5.20;59.50;;;;;;4959294;28;47324;-69
2023/12/09 05:43:57;;;;;;;18.40;7.90;;;5.20;59.40;;;;;;4961815;28;46467;-68
2023/12/09 05:46:23;;;;;;;21.33;8.50;;;5.30;59.30;;;;;;4955859;28;46579;-68
2023/12/09 05:48:48;;;;;;;18.07;7.77;;;5.20;59.10;;;;;;4959125;28;46449;-68
2023/12/09 05:51:14;;;;;;;22.70;9.40;;;5.30;59.20;;;;;;4960656;28;46505;-69
2023/12/09 05:53:41;;;;;;;20.87;8.73;;;5.30;59.00;;;;;;4960511;28;46405;-68
2023/12/09 05:56:11;;;;;;;20.90;8.73;;;5.20;59.00;;;;;;4959822;28;46441;-68
2023/12/09 05:58:39;;;;;;;19.77;8.47;;;5.20;59.20;;;;;;4960219;28;46493;-68
2023/12/09 06:01:05;;;;;;;22.93;9.10;;;5.20;59.30;;;;;;4960137;28;46970;-68
2023/12/09 06:03:31;;;;;;;18.77;9.20;;;5.20;59.30;;;;;;4960148;28;46469;-67
2023/12/09 06:05:57;;;;;;;21.07;9.67;;;5.10;59.30;;;;;;4957493;28;46309;-68
2023/12/09 06:08:23;;;;;;;19.17;8.40;;;5.10;59.50;;;;;;4957380;28;45939;-69
2023/12/09 06:10:49;;;;;;;26.47;10.53;;;5.20;59.80;;;;;;4956853;28;48380;-68
2023/12/09 06:13:15;;;;;;;21.10;9.50;;;5.00;59.90;;;;;;4960333;28;46366;-67
2023/12/09 06:15:41;;;;;;;26.03;9.50;;;5.00;60.10;;;;;;4958273;28;46540;-68
2023/12/09 06:18:06;;;;;;;24.60;10.20;;;5.00;60.00;;;;;;4956880;28;46735;-68
2023/12/09 06:20:32;;;;;;;21.47;9.47;;;5.10;59.80;;;;;;4973628;28;46712;-68
2023/12/09 06:22:57;;;;;;;19.43;9.87;;;5.10;59.40;;;;;;4968801;28;46500;-68
2023/12/09 06:25:23;;;;;;;20.40;10.77;;;5.20;59.20;;;;;;4971215;28;46454;-68
2023/12/09 06:27:48;;;;;;;23.33;9.80;;;5.20;59.20;;;;;;4967397;28;46236;-68
2023/12/09 06:30:15;;;;;;;22.53;9.20;;;5.30;59.20;;;;;;4969183;28;46432;-68
2023/12/09 06:32:42;;;;;;;18.67;9.35;;;5.20;59.10;;;;;;4975700;28;46498;-68
2023/12/09 06:35:08;;;;;;;20.17;9.20;;;5.20;59.00;;;;;;4983462;28;46368;-67
2023/12/09 06:37:33;;;;;;;16.87;8.40;;;5.20;59.00;;;;;;4980404;28;46087;-69
2023/12/09 06:39:59;;;;;;;20.50;10.10;;;5.20;59.00;;;;;;4978690;28;47099;-67
2023/12/09 06:42:24;;;;;;;21.60;10.50;;;5.30;58.90;;;;;;4977249;28;46588;-69
2023/12/09 06:44:50;;;;;;;24.23;10.20;;;5.30;58.80;;;;;;4980002;28;46091;-67
2023/12/09 06:47:16;;;;;;;23.53;10.60;;;5.30;58.40;;;;;;4979805;28;46548;-69
2023/12/09 06:49:41;;;;;;;23.83;11.70;;;5.40;58.30;;;;;;4977512;28;46368;-67
2023/12/09 06:52:07;;;;;;;25.47;13.03;;;5.30;58.10;;;;;;4979274;28;46531;-70
2023/12/09 06:54:32;;;;;;;26.80;13.50;;;5.40;58.20;;;;;;4977750;28;46658;-69
2023/12/09 06:56:58;;;;;;;25.50;12.37;;;5.40;58.20;;;;;;4978844;28;46660;-67
2023/12/09 06:59:25;;;;;;;25.53;13.07;;;5.40;58.00;;;;;;4982370;28;46981;-69
2023/12/09 07:01:51;;;;;;;36.07;14.70;;;5.40;57.80;;;;;;4982308;28;46696;-69
2023/12/09 07:04:17;;;;;;;26.40;14.17;;;5.40;57.70;;;;;;4982851;28;46411;-69
2023/12/09 07:06:43;;;;;;;30.27;12.90;;;5.40;57.70;;;;;;4980867;28;46406;-69
2023/12/09 07:09:09;;;;;;;19.40;9.00;;;5.40;57.70;;;;;;4980532;28;47202;-70
2023/12/09 07:11:35;;;;;;;19.03;9.63;;;5.30;57.60;;;;;;4981885;28;46340;-67
2023/12/09 07:14:00;;;;;;;16.50;9.00;;;5.30;57.90;;;;;;4985466;28;46421;-68
2023/12/09 07:16:26;;;;;;;15.70;8.23;;;5.30;58.10;;;;;;4980008;28;46488;-69
2023/12/09 07:18:58;;;;;;;15.20;8.30;;;5.30;58.00;;;;;;4983708;28;46525;-68
2023/12/09 07:21:37;;;;;;;16.77;9.03;;;5.30;58.10;;;;;;4955178;28;46801;-66
2023/12/09 07:24:03;;;;;;;14.40;7.80;;;5.20;58.40;;;;;;4950166;28;46521;-69
2023/12/09 07:26:29;;;;;;;15.10;8.50;;;5.10;58.60;;;;;;4951317;28;46458;-67
2023/12/09 07:28:54;;;;;;;16.10;7.40;;;5.00;58.90;;;;;;4947067;28;46468;-69
2023/12/09 07:31:20;;;;;;;16.67;8.60;;;4.80;59.40;;;;;;4932909;28;46806;-69
2023/12/09 07:33:45;;;;;;;14.47;7.40;;;4.80;60.00;;;;;;4949919;28;46465;-70
2023/12/09 07:36:11;;;;;;;13.80;7.20;;;4.70;60.40;;;;;;4948870;28;46518;-69
2023/12/09 07:38:36;;;;;;;12.90;7.30;;;4.60;60.70;;;;;;4947825;28;46326;-70
2023/12/09 07:41:03;;;;;;;12.83;7.17;;;4.60;60.70;;;;;;4950117;28;46766;-70
2023/12/09 07:43:30;;;;;;;16.67;9.20;;;4.50;60.80;;;;;;4948377;28;46510;-70
2023/12/09 07:45:55;;;;;;;18.70;9.90;;;4.50;61.20;;;;;;4946732;28;46438;-71
2023/12/09 07:48:21;;;;;;;27.67;14.53;;;4.60;60.90;;;;;;4948923;28;46501;-70
2023/12/09 07:50:46;;;;;;;22.20;13.13;;;4.70;60.90;;;;;;4947490;28;46666;-70
2023/12/09 07:53:12;;;;;;;17.67;9.70;;;4.90;60.30;;;;;;4972868;28;46445;-70
2023/12/09 07:55:38;;;;;;;12.80;6.90;;;5.10;59.80;;;;;;4977235;28;46408;-71
2023/12/09 07:58:03;;;;;;;12.27;7.00;;;5.20;59.10;;;;;;4979455;28;46517;-70
2023/12/09 08:00:29;;;;;;;13.53;7.23;;;5.20;59.10;;;;;;4982834;28;46475;-68
2023/12/09 08:02:55;;;;;;;11.10;7.27;;;5.20;59.60;;;;;;4979963;28;46514;-70
2023/12/09 08:05:22;;;;;;;13.43;7.50;;;5.00;60.00;;;;;;4996181;28;46534;-69
2023/12/09 08:07:48;;;;;;;15.87;7.97;;;5.00;60.60;;;;;;4981974;28;46297;-70
2023/12/09 08:10:13;;;;;;;13.27;7.57;;;4.90;61.00;;;;;;4980570;28;46449;-70
2023/12/09 08:12:39;;;;;;;10.37;6.63;;;4.90;61.00;;;;;;4979456;28;46446;-70
2023/12/09 08:15:05;;;;;;;15.43;8.20;;;5.00;61.10;;;;;;4981826;28;46409;-69
2023/12/09 08:17:30;;;;;;;13.20;7.57;;;5.20;60.70;;;;;;4981337;28;46497;-70
2023/12/09 08:19:56;;;;;;;12.93;7.07;;;5.50;59.90;;;;;;4981682;28;46354;-69
2023/12/09 08:22:21;;;;;;;13.43;7.27;;;5.70;58.90;;;;;;4982714;28;45875;-69
2023/12/09 08:24:47;;;;;;;11.43;5.97;;;5.90;58.30;;;;;;4980064;28;46522;-68
2023/12/09 08:27:13;;;;;;;9.53;6.10;;;6.20;57.90;;;;;;4979870;28;46522;-70
2023/12/09 08:29:38;;;;;;;10.50;6.63;;;6.40;57.30;;;;;;4979822;28;46714;-69
2023/12/09 08:32:04;;;;;;;10.07;5.33;;;6.70;56.60;;;;;;4979807;28;46470;-69
2023/12/09 08:34:30;;;;;;;8.67;5.00;;;6.60;56.60;;;;;;4981202;28;46557;-69
2023/12/09 08:36:56;;;;;;;11.53;5.10;;;6.50;57.00;;;;;;4978659;28;46628;-70
2023/12/09 08:39:23;;;;;;;8.93;5.03;;;6.50;57.20;;;;;;4980738;28;46477;-69
2023/12/09 08:41:48;;;;;;;8.07;4.90;;;6.40;57.50;;;;;;4979503;28;46514;-69
2023/12/09 08:44:14;;;;;;;7.90;4.83;;;6.40;57.90;;;;;;4981032;28;46336;-70
2023/12/09 08:46:40;;;;;;;10.10;5.00;;;6.50;58.10;;;;;;4980035;28;46427;-70
2023/12/09 08:49:06;;;;;;;7.00;4.63;;;6.50;58.30;;;;;;4980425;28;46476;-71
2023/12/09 08:51:31;;;;;;;9.30;5.30;;;6.40;58.40;;;;;;4980317;28;45816;-69
2023/12/09 08:53:57;;;;;;;8.93;5.70;;;6.40;58.90;;;;;;4979339;28;46604;-69
2023/12/09 08:56:23;;;;;;;7.53;4.50;;;6.30;59.10;;;;;;4979188;28;46545;-69
2023/12/09 08:58:48;;;;;;;9.63;5.57;;;6.20;59.40;;;;;;4980573;28;46509;-69
2023/12/09 09:01:14;;;;;;;8.57;4.57;;;6.20;59.50;;;;;;4980347;28;46502;-69
2023/12/09 09:03:40;;;;;;;7.40;4.87;;;6.10;59.60;;;;;;4979101;28;46376;-69
2023/12/09 09:06:05;;;;;;;10.53;5.60;;;6.10;59.80;;;;;;4980537;28;46433;-69
2023/12/09 09:08:31;;;;;;;7.27;5.07;;;6.20;59.70;;;;;;4979160;28;46396;-70
2023/12/09 09:10:57;;;;;;;8.80;5.20;;;6.30;59.30;;;;;;4979877;28;46547;-69
2023/12/09 09:13:22;;;;;;;8.00;4.63;;;6.40;59.00;;;;;;4979899;28;45941;-69
2023/12/09 09:15:48;;;;;;;8.67;5.27;;;6.50;58.70;;;;;;4976019;28;46456;-69
2023/12/09 09:18:14;;;;;;;8.13;5.17;;;6.70;58.30;;;;;;4981112;28;46416;-68
2023/12/09 09:20:42;;;;;;;11.00;5.87;;;6.80;57.90;;;;;;4981100;28;46498;-69
2023/12/09 09:23:09;;;;;;;9.30;5.30;;;6.90;57.60;;;;;;4977575;28;46527;-68
2023/12/09 09:25:35;;;;;;;8.63;5.70;;;6.90;57.30;;;;;;4977028;28;46858;-68
2023/12/09 09:28:02;;;;;;;8.50;5.70;;;6.90;57.10;;;;;;4979036;28;46417;-69
2023/12/09 09:30:28;;;;;;;9.00;5.13;;;6.90;57.00;;;;;;4979825;28;45919;-70
2023/12/09 09:32:54;;;;;;;9.00;4.93;;;7.10;56.80;;;;;;4979196;28;46459;-69
2023/12/09 09:35:20;;;;;;;7.17;5.17;;;7.30;56.20;;;;;;4979259;28;47204;-68
2023/12/09 09:37:45;;;;;;;7.77;5.47;;;7.40;55.50;;;;;;4978706;28;46326;-69
2023/12/09 09:40:12;;;;;;;6.90;4.67;;;7.60;55.10;;;;;;4980460;28;46314;-69
2023/12/09 09:42:47;;;;;;;7.17;4.53;;;7.70;54.70;;;;;;4980263;28;46486;-68
2023/12/09 09:45:23;;;;;;;6.40;4.57;;;7.70;54.60;;;;;;4980126;28;46517;-68
2023/12/09 09:47:50;;;;;;;6.70;3.93;;;7.70;54.50;;;;;;4971135;28;46499;-71
2023/12/09 09:50:23;;;;;;;6.47;4.30;;;7.70;54.60;;;;;;4977814;28;47115;-70
2023/12/09 09:52:50;;;;;;;7.80;4.70;;;7.80;54.60;;;;;;4978247;28;46711;-68
2023/12/09 09:55:21;;;;;;;9.97;5.60;;;7.80;54.40;;;;;;4977954;28;46667;-70
2023/12/09 09:57:50;;;;;;;8.80;4.67;;;7.80;54.40;;;;;;4979448;28;45848;-69
2023/12/09 10:00:19;;;;;;;7.40;4.70;;;7.80;54.40;;;;;;4978229;28;46675;-70
2023/12/09 10:02:47;;;;;;;6.20;4.20;;;7.90;54.30;;;;;;4980161;28;46471;-70
2023/12/09 10:05:20;;;;;;;7.87;4.20;;;7.90;54.20;;;;;;4977900;28;47165;-69
2023/12/09 10:07:45;;;;;;;6.83;3.33;;;7.90;54.10;;;;;;4977512;28;46488;-68
2023/12/09 10:10:13;;;;;;;5.57;3.77;;;7.90;54.20;;;;;;4979216;28;46459;-69
2023/12/09 10:12:40;;;;;;;5.80;3.70;;;7.90;53.90;;;;;;4981133;28;45861;-68
2023/12/09 10:15:06;;;;;;;5.30;3.40;;;7.90;53.80;;;;;;4978106;28;47013;-67
2023/12/09 10:17:32;;;;;;;9.97;5.20;;;7.90;53.90;;;;;;4979542;28;46459;-69
2023/12/09 10:19:58;;;;;;;6.73;4.27;;;7.80;54.20;;;;;;4979654;28;46392;-70
2023/12/09 10:22:25;;;;;;;8.00;4.47;;;7.80;54.50;;;;;;4980904;28;46339;-70
2023/12/09 10:24:52;;;;;;;7.10;3.80;;;7.80;54.60;;;;;;4977214;28;46551;-71
2023/12/09 10:27:25;;;;;;;7.37;3.67;;;7.80;54.50;;;;;;4975513;28;46496;-70
2023/12/09 10:29:58;;;;;;;5.20;3.43;;;7.90;54.50;;;;;;4978588;28;46436;-70
2023/12/09 10:32:26;;;;;;;5.17;3.50;;;7.90;54.30;;;;;;4979733;28;46467;-70
2023/12/09 10:34:51;;;;;;;6.20;3.90;;;7.90;54.10;;;;;;4980169;28;46638;-70
2023/12/09 10:37:18;;;;;;;4.93;3.90;;;8.00;54.20;;;;;;4982097;28;46430;-69
2023/12/09 10:39:48;;;;;;;6.00;4.07;;;8.00;54.10;;;;;;4982394;28;46491;-68
2023/12/09 10:42:14;;;;;;;5.00;3.40;;;8.00;53.90;;;;;;4983874;28;46408;-67
2023/12/09 10:44:40;;;;;;;4.70;3.43;;;8.00;53.80;;;;;;4980794;28;46395;-70
2023/12/09 10:47:06;;;;;;;6.87;3.90;;;8.00;54.00;;;;;;4982578;28;46520;-70
2023/12/09 10:49:32;;;;;;;5.67;3.97;;;8.00;53.90;;;;;;4982874;28;46460;-70
2023/12/09 10:51:58;;;;;;;5.83;4.00;;;8.10;53.70;;;;;;4983531;28;46527;-69
2023/12/09 10:54:23;;;;;;;10.87;3.80;;;8.10;53.40;;;;;;4983649;28;46367;-67
2023/12/09 10:56:49;;;;;;;4.97;3.80;;;8.10;53.30;;;;;;4981128;28;46488;-69
2023/12/09 10:59:18;;;;;;;7.10;3.70;;;8.20;53.10;;;;;;4981005;28;46619;-69
2023/12/09 11:01:47;;;;;;;4.83;3.37;;;8.20;52.80;;;;;;4981936;28;46365;-69
2023/12/09 11:04:13;;;;;;;9.83;3.50;;;8.30;52.20;;;;;;4983775;28;46785;-69
2023/12/09 11:06:41;;;;;;;4.40;3.20;;;8.50;51.60;;;;;;4984124;28;46416;-67
2023/12/09 11:09:08;;;;;;;5.90;3.80;;;8.70;51.60;;;;;;4984652;28;46468;-67
2023/12/09 11:11:37;;;;;;;6.43;3.40;;;8.70;51.50;;;;;;4984299;28;46387;-68
2023/12/09 11:14:07;;;;;;;4.53;3.40;;;8.90;51.70;;;;;;4979348;28;46988;-67
2023/12/09 11:16:33;;;;;;;5.47;3.40;;;8.80;51.60;;;;;;4983220;28;46436;-69
2023/12/09 11:18:59;;;;;;;8.20;3.90;;;8.60;51.40;;;;;;4981152;28;46596;-69
2023/12/09 11:21:27;;;;;;;9.10;3.60;;;8.60;51.40;;;;;;4980127;28;46861;-70
2023/12/09 11:23:54;;;;;;;5.73;3.67;;;8.60;51.40;;;;;;4980522;28;46447;-68
2023/12/09 11:26:26;;;;;;;6.73;4.07;;;8.50;51.30;;;;;;4982711;28;46411;-69
2023/12/09 11:29:06;;;;;;;12.90;4.50;;;8.20;51.10;;;;;;4981455;28;45843;-68
2023/12/09 11:31:43;;;;;;;6.37;3.57;;;8.10;51.00;;;;;;4981108;28;46401;-69
2023/12/09 11:34:11;;;;;;;4.70;3.60;;;8.10;51.10;;;;;;4981869;28;48098;-67
2023/12/09 11:36:40;;;;;;;6.87;3.77;;;8.20;51.10;;;;;;4980889;28;46572;-68
2023/12/09 11:39:09;;;;;;;8.17;3.70;;;8.30;50.70;;;;;;4981480;28;46477;-68
2023/12/09 11:41:35;;;;;;;5.50;3.90;;;8.40;49.70;;;;;;4982933;28;46520;-69
2023/12/09 11:44:02;;;;;;;13.60;4.10;;;8.50;48.90;;;;;;4982592;28;46376;-70
2023/12/09 11:46:32;;;;;;;6.23;3.50;;;8.60;48.40;;;;;;4983136;28;46748;-69
2023/12/09 11:48:59;;;;;;;6.20;3.60;;;8.60;48.70;;;;;;4980617;28;46417;-67
2023/12/09 11:51:29;;;;;;;5.40;3.40;;;8.80;48.00;;;;;;4983615;28;46607;-70
2023/12/09 11:53:56;;;;;;;6.80;3.13;;;8.90;47.70;;;;;;4978647;28;47890;-69
2023/12/09 11:56:22;;;;;;;6.37;3.57;;;9.10;46.80;;;;;;4982592;28;46354;-70
2023/12/09 11:58:48;;;;;;;5.73;3.13;;;9.30;46.10;;;;;;4982382;28;46434;-67
2023/12/09 12:01:14;;;;;;;7.27;4.17;;;9.40;46.80;;;;;;4983389;28;46516;-69
2023/12/09 12:03:39;;;;;;;5.50;3.80;;;9.50;45.50;;;;;;4983817;28;46353;-68
2023/12/09 12:06:06;;;;;;;15.77;8.97;;;9.30;45.60;;;;;;4983899;28;46416;-68
2023/12/09 12:08:32;;;;;;;8.23;4.90;;;9.20;46.00;;;;;;4984519;28;46455;-68
2023/12/09 12:10:57;;;;;;;8.87;4.43;;;9.40;46.10;;;;;;4982408;28;46345;-67
2023/12/09 12:13:23;;;;;;;7.80;3.43;;;9.50;45.50;;;;;;4982675;28;46369;-70
2023/12/09 12:15:49;;;;;;;8.93;3.80;;;9.70;44.90;;;;;;4995090;28;46477;-70
2023/12/09 12:18:15;;;;;;;6.67;3.40;;;9.80;44.00;;;;;;4978307;28;46227;-70
2023/12/09 12:20:41;;;;;;;8.93;3.40;;;9.80;43.60;;;;;;4979563;28;46661;-69
2023/12/09 12:23:06;;;;;;;5.27;2.97;;;9.80;43.30;;;;;;4978239;28;46484;-69
2023/12/09 12:25:32;;;;;;;11.80;4.20;;;9.70;43.40;;;;;;4980853;28;46382;-69
2023/12/09 12:27:57;;;;;;;8.43;3.47;;;9.60;43.70;;;;;;4982513;28;46432;-70
2023/12/09 12:30:23;;;;;;;7.63;3.40;;;9.30;44.10;;;;;;4982295;28;46321;-71
2023/12/09 12:32:56;;;;;;;6.30;3.37;;;9.20;44.80;;;;;;4980652;28;46377;-70
2023/12/09 12:35:22;;;;;;;6.87;3.30;;;9.00;44.90;;;;;;4980593;28;46514;-69
2023/12/09 12:37:48;;;;;;;8.93;2.97;;;8.90;45.10;;;;;;4979070;28;46401;-69
2023/12/09 12:40:14;;;;;;;7.97;3.53;;;8.80;45.20;;;;;;4978421;28;46677;-69
2023/12/09 12:42:42;;;;;;;7.33;2.73;;;8.80;45.20;;;;;;4979417;28;46563;-69